createdAt,value
2023-03-16T07:50:31.254Z,17.47
2023-03-16T07:52:58.201Z,17.71
2023-03-16T07:55:25.981Z,18.02
2023-03-16T07:57:53.890Z,18.35
2023-03-16T08:00:28.373Z,18.63
2023-03-16T08:02:56.304Z,18.87
2023-03-16T08:05:22.945Z,19.04
2023-03-16T08:07:57.317Z,19.15
2023-03-16T08:10:26.068Z,19.24
2023-03-16T08:13:04.718Z,19.31
2023-03-16T08:15:35.042Z,19.37
2023-03-16T08:18:10.107Z,19.44
2023-03-16T08:20:36.753Z,19.47
2023-03-16T08:23:03.644Z,19.48
2023-03-16T08:25:37.023Z,19.51
2023-03-16T08:28:09.376Z,19.52
2023-03-16T08:30:36.414Z,19.52
2023-03-16T08:33:22.973Z,19.55
2023-03-16T08:35:51.156Z,19.54
2023-03-16T08:38:19.121Z,19.54
2023-03-16T08:40:48.465Z,19.54
2023-03-16T08:43:17.986Z,19.55
2023-03-16T08:45:46.140Z,19.54
2023-03-16T08:48:14.872Z,19.54
2023-03-16T08:50:44.737Z,19.54
2023-03-16T08:53:13.748Z,19.54
2023-03-16T08:55:44.019Z,19.54
2023-03-16T08:58:12.045Z,19.52
2023-03-16T09:00:39.535Z,19.53
2023-03-16T09:03:06.733Z,19.56
2023-03-16T09:05:34.133Z,19.56
2023-03-16T09:08:01.565Z,19.56
2023-03-16T09:10:28.904Z,19.55
2023-03-16T09:12:55.632Z,19.57
2023-03-16T09:15:22.200Z,19.57
2023-03-16T09:17:49.097Z,19.57
2023-03-16T09:20:22.710Z,19.56
2023-03-16T09:22:53.379Z,19.56
2023-03-16T09:25:20.630Z,19.56
2023-03-16T09:27:47.195Z,19.56
2023-03-16T09:30:14.282Z,19.56
2023-03-16T09:32:41.323Z,19.53
2023-03-16T09:35:08.347Z,19.56
2023-03-16T09:37:45.117Z,19.54
2023-03-16T09:40:31.684Z,19.57
2023-03-16T09:43:30.670Z,19.58
2023-03-16T09:46:07.923Z,19.55
2023-03-16T09:48:37.269Z,19.57
2023-03-16T09:51:07.792Z,19.58
2023-03-16T09:53:39.229Z,19.61
2023-03-16T09:56:27.057Z,19.62
2023-03-16T09:58:54.880Z,19.64
2023-03-16T10:01:49.790Z,19.64
2023-03-16T10:04:28.389Z,19.65
2023-03-16T10:07:10.159Z,19.64
2023-03-16T10:09:47.601Z,19.65
2023-03-16T10:12:15.829Z,19.70
2023-03-16T10:15:15.216Z,19.71
2023-03-16T10:17:51.406Z,19.70
2023-03-16T10:20:20.781Z,19.72
2023-03-16T10:22:49.263Z,19.73
2023-03-16T10:25:23.275Z,19.74
2023-03-16T10:27:50.333Z,19.76
2023-03-16T10:30:28.808Z,19.75
2023-03-16T10:32:57.558Z,19.75
2023-03-16T10:35:49.598Z,19.76
2023-03-16T10:38:40.118Z,19.75
2023-03-16T10:41:20.167Z,19.75
2023-03-16T10:43:52.634Z,19.77
2023-03-16T10:46:19.310Z,19.77
2023-03-16T10:48:54.750Z,19.78
2023-03-16T10:51:26.077Z,19.78
2023-03-16T10:53:52.794Z,19.76
2023-03-16T10:56:22.873Z,19.79
2023-03-16T10:58:49.428Z,19.78
2023-03-16T11:01:18.592Z,19.77
2023-03-16T11:03:51.207Z,19.79
2023-03-16T11:06:32.989Z,19.78
2023-03-16T11:09:20.085Z,19.76
2023-03-16T11:11:49.345Z,19.74
2023-03-16T11:14:20.530Z,19.74
2023-03-16T11:16:53.588Z,19.73
2023-03-16T11:19:49.629Z,19.72
2023-03-16T11:22:26.929Z,19.72
2023-03-16T11:25:13.936Z,19.72
2023-03-16T11:27:54.789Z,19.71
2023-03-16T11:30:29.165Z,19.72
2023-03-16T11:32:55.969Z,19.73
2023-03-16T11:36:13.299Z,19.69
2023-03-16T11:39:10.799Z,19.70
2023-03-16T11:41:49.435Z,19.70
2023-03-16T11:44:41.954Z,19.68
2023-03-16T11:47:42.538Z,19.66
2023-03-16T11:50:22.242Z,19.59
2023-03-16T11:53:00.245Z,19.58
2023-03-16T11:55:45.292Z,19.50
2023-03-16T11:58:28.887Z,19.48
2023-03-16T12:01:09.173Z,19.48
2023-03-16T12:03:53.869Z,19.45
2023-03-16T12:06:41.526Z,19.46
2023-03-16T12:09:07.974Z,19.46
2023-03-16T12:11:45.494Z,19.47
2023-03-16T12:14:20.637Z,19.45
2023-03-16T12:17:08.326Z,19.48
2023-03-16T12:19:56.369Z,19.50
2023-03-16T12:22:28.854Z,19.45
2023-03-16T12:24:55.516Z,19.48
2023-03-16T12:27:26.938Z,19.51
2023-03-16T12:30:10.217Z,19.51
2023-03-16T12:32:50.256Z,19.51
2023-03-16T12:35:41.288Z,19.48
2023-03-16T12:38:16.044Z,19.44
2023-03-16T12:40:59.961Z,19.39
2023-03-16T12:43:45.664Z,19.35
2023-03-16T12:46:18.570Z,19.34
2023-03-16T12:48:49.949Z,19.31
2023-03-16T12:51:17.296Z,19.36
2023-03-16T12:53:55.413Z,19.41
2023-03-16T12:56:30.688Z,19.48
2023-03-16T12:59:00.259Z,19.52
2023-03-16T13:01:30.292Z,19.56
2023-03-16T13:04:17.459Z,19.55
2023-03-16T13:06:49.324Z,19.57
2023-03-16T13:09:28.501Z,19.60
2023-03-16T13:11:55.291Z,19.61
2023-03-16T13:14:38.766Z,19.60
2023-03-16T13:17:17.456Z,19.61
2023-03-16T13:19:57.626Z,19.65
2023-03-16T13:23:09.534Z,19.67
2023-03-16T13:25:45.511Z,19.69
2023-03-16T13:28:15.085Z,19.71
2023-03-16T13:30:48.602Z,19.70
2023-03-16T13:33:21.871Z,19.73
2023-03-16T13:35:51.121Z,19.75
2023-03-16T13:38:20.627Z,19.76
2023-03-16T13:40:50.250Z,19.77
2023-03-16T13:43:18.975Z,19.73
2023-03-16T13:45:45.763Z,19.79
2023-03-16T13:48:13.761Z,19.82
2023-03-16T13:50:42.322Z,19.83
2023-03-16T13:53:20.094Z,19.86
2023-03-16T13:55:47.724Z,19.90
2023-03-16T13:58:20.749Z,19.91
2023-03-16T14:00:47.508Z,19.88
2023-03-16T14:03:17.644Z,19.90
2023-03-16T14:05:44.975Z,19.92
2023-03-16T14:08:21.724Z,19.93
2023-03-16T14:10:48.977Z,19.93
2023-03-16T14:13:27.762Z,19.93
2023-03-16T14:15:56.372Z,19.90
2023-03-16T14:18:30.328Z,19.89
2023-03-16T14:20:56.980Z,19.92
2023-03-16T14:23:28.473Z,19.92
2023-03-16T14:25:55.284Z,19.91
2023-03-16T14:28:32.180Z,19.94
2023-03-16T14:31:09.814Z,19.95
2023-03-16T14:33:40.072Z,19.97
2023-03-16T14:36:18.667Z,19.99
2023-03-16T14:38:48.363Z,19.98
2023-03-16T14:41:25.805Z,19.99
2023-03-16T14:43:57.349Z,20.04
2023-03-16T14:46:33.054Z,20.05
2023-03-16T14:49:28.249Z,20.08
2023-03-16T14:52:15.270Z,20.09
2023-03-16T14:54:41.751Z,20.13
2023-03-16T14:57:16.864Z,20.12
2023-03-16T14:59:45.928Z,20.12
2023-03-16T15:02:25.279Z,20.12
2023-03-16T15:04:51.823Z,20.12
2023-03-16T15:07:29.528Z,20.13
2023-03-16T15:10:07.080Z,20.09
2023-03-16T15:12:34.779Z,20.11
2023-03-16T15:15:16.595Z,20.13
2023-03-16T15:17:46.532Z,20.13
2023-03-16T15:20:15.505Z,20.11
2023-03-16T15:22:43.473Z,20.09
2023-03-16T15:25:25.480Z,20.09
2023-03-16T15:27:53.627Z,20.14
2023-03-16T15:30:25.862Z,20.16
2023-03-16T15:32:52.890Z,20.14
2023-03-16T15:35:20.570Z,20.16
2023-03-16T15:37:47.695Z,20.16
2023-03-16T15:40:28.889Z,20.16
2023-03-16T15:42:55.612Z,20.20
2023-03-16T15:45:23.714Z,20.21
2023-03-16T15:47:52.081Z,20.23
2023-03-16T15:50:21.843Z,20.25
2023-03-16T15:53:00.976Z,20.28
2023-03-16T15:55:40.732Z,20.32
2023-03-16T15:58:17.130Z,20.32
2023-03-16T16:00:43.608Z,20.33
2023-03-16T16:03:11.582Z,20.30
2023-03-16T16:05:38.081Z,20.27
2023-03-16T16:08:05.152Z,20.28
2023-03-16T16:10:32.270Z,20.27
2023-03-16T16:13:00.011Z,20.28
2023-03-16T16:15:33.837Z,20.29
2023-03-16T16:18:20.417Z,20.24
2023-03-16T16:20:48.277Z,20.22
2023-03-16T16:23:14.961Z,20.18
2023-03-16T16:25:42.508Z,20.11
2023-03-16T16:28:30.821Z,20.07
2023-03-16T16:30:59.317Z,20.02
2023-03-16T16:33:34.542Z,19.96
2023-03-16T16:36:04.001Z,19.94
2023-03-16T16:38:31.938Z,19.90
2023-03-16T16:41:01.536Z,19.88
2023-03-16T16:43:41.211Z,19.87
2023-03-16T16:46:15.471Z,19.89
2023-03-16T16:48:45.315Z,19.91
2023-03-16T16:51:24.678Z,19.93
2023-03-16T16:53:53.571Z,19.96
2023-03-16T16:56:28.204Z,19.96
2023-03-16T16:59:01.363Z,19.94
2023-03-16T17:01:32.843Z,19.93
2023-03-16T17:04:00.034Z,19.90
2023-03-16T17:06:27.820Z,19.85
2023-03-16T17:08:57.415Z,19.79
2023-03-16T17:11:25.554Z,19.79
2023-03-16T17:13:53.988Z,19.79
2023-03-16T17:16:22.873Z,19.72
2023-03-16T17:18:49.749Z,19.62
2023-03-16T17:21:19.809Z,19.65
2023-03-16T17:23:48.159Z,19.61
2023-03-16T17:26:19.194Z,19.61
2023-03-16T17:28:51.911Z,19.63
2023-03-16T17:31:25.236Z,19.58
2023-03-16T17:33:53.422Z,19.58
2023-03-16T17:36:21.319Z,19.60
2023-03-16T17:38:48.052Z,19.63
2023-03-16T17:41:26.985Z,19.67
2023-03-16T17:43:56.681Z,19.58
2023-03-16T17:46:28.359Z,19.56
2023-03-16T17:48:56.075Z,19.55
2023-03-16T17:51:25.517Z,19.57
2023-03-16T17:53:52.119Z,19.60
2023-03-16T17:56:22.237Z,19.60
2023-03-16T17:58:53.910Z,19.61
2023-03-16T18:01:23.766Z,19.56
2023-03-16T18:03:50.361Z,19.55
2023-03-16T18:06:20.653Z,19.52
2023-03-16T18:08:48.595Z,19.59
2023-03-16T18:11:24.339Z,19.62
2023-03-16T18:13:51.786Z,19.60
2023-03-16T18:16:24.811Z,19.72
2023-03-16T18:18:53.413Z,19.72
2023-03-16T18:21:23.089Z,19.68
2023-03-16T18:23:49.650Z,19.68
2023-03-16T18:26:16.397Z,19.72
2023-03-16T18:28:43.858Z,19.68
2023-03-16T18:31:19.135Z,19.70
2023-03-16T18:33:46.753Z,19.75
2023-03-16T18:36:17.926Z,19.77
2023-03-16T18:38:48.319Z,19.72
2023-03-16T18:41:23.416Z,19.72
2023-03-16T18:43:51.921Z,19.75
2023-03-16T18:46:29.095Z,19.75
2023-03-16T18:48:58.734Z,19.74
2023-03-16T18:51:26.497Z,19.72
2023-03-16T18:53:53.433Z,19.74
2023-03-16T18:56:27.141Z,19.80
2023-03-16T18:58:55.236Z,19.77
2023-03-16T19:01:30.770Z,19.73
2023-03-16T19:03:59.844Z,19.74
2023-03-16T19:06:35.469Z,19.75
2023-03-16T19:09:13.419Z,19.77
2023-03-16T19:11:42.932Z,19.82
2023-03-16T19:14:18.446Z,19.81
2023-03-16T19:16:46.588Z,19.79
2023-03-16T19:19:14.185Z,19.84
2023-03-16T19:21:41.821Z,19.80
2023-03-16T19:24:20.109Z,19.80
2023-03-16T19:26:46.680Z,19.84
2023-03-16T19:29:14.306Z,19.78
2023-03-16T19:31:40.973Z,19.75
2023-03-16T19:34:17.282Z,19.80
2023-03-16T19:36:43.818Z,19.82
2023-03-16T19:39:14.128Z,19.84
2023-03-16T19:41:41.193Z,19.83
2023-03-16T19:44:17.399Z,19.83
2023-03-16T19:46:44.298Z,19.77
2023-03-16T19:49:16.522Z,19.70
2023-03-16T19:51:43.071Z,19.73
2023-03-16T19:54:21.698Z,19.77
2023-03-16T19:56:48.941Z,19.75
2023-03-16T19:59:17.360Z,19.79
2023-03-16T20:01:43.876Z,19.78
2023-03-16T20:04:26.743Z,19.78
2023-03-16T20:06:56.257Z,19.77
2023-03-16T20:09:22.923Z,19.70
2023-03-16T20:11:49.669Z,19.69
2023-03-16T20:14:34.297Z,19.75
2023-03-16T20:17:01.011Z,19.81
2023-03-16T20:19:28.565Z,19.72
2023-03-16T20:21:55.237Z,19.73
2023-03-16T20:24:22.170Z,19.76
2023-03-16T20:26:51.296Z,19.75
2023-03-16T20:29:29.213Z,19.74
2023-03-16T20:31:56.133Z,19.77
2023-03-16T20:34:28.747Z,19.75
2023-03-16T20:36:55.926Z,19.72
2023-03-16T20:39:22.632Z,19.66
2023-03-16T20:41:50.484Z,19.67
2023-03-16T20:44:23.454Z,19.73
2023-03-16T20:46:49.877Z,19.74
2023-03-16T20:49:22.303Z,19.80
2023-03-16T20:51:49.953Z,19.76
2023-03-16T20:54:17.717Z,19.73
2023-03-16T20:56:44.489Z,19.73
2023-03-16T20:59:18.757Z,19.74
2023-03-16T21:01:46.023Z,19.73
2023-03-16T21:04:38.690Z,19.77
2023-03-16T21:07:06.313Z,19.75
2023-03-16T21:09:33.466Z,19.74
2023-03-16T21:12:00.016Z,19.76
2023-03-16T21:14:27.234Z,19.66
2023-03-16T21:16:54.431Z,19.67
2023-03-16T21:19:22.869Z,19.66
2023-03-16T21:21:49.890Z,19.71
2023-03-16T21:24:16.719Z,19.73
2023-03-16T21:26:44.912Z,19.66
2023-03-16T21:29:16.032Z,19.70
2023-03-16T21:31:42.954Z,19.71
2023-03-16T21:34:24.136Z,19.65
2023-03-16T21:36:50.851Z,19.66
2023-03-16T21:39:20.420Z,19.66
2023-03-16T21:41:49.805Z,19.70
2023-03-16T21:44:16.695Z,19.77
2023-03-16T21:46:43.528Z,19.79
2023-03-16T21:49:12.002Z,19.78
2023-03-16T21:51:38.510Z,19.80
2023-03-16T21:54:07.871Z,19.73
2023-03-16T21:56:36.000Z,19.72
2023-03-16T21:59:02.594Z,19.72
2023-03-16T22:01:31.574Z,19.73
2023-03-16T22:04:02.832Z,19.77
2023-03-16T22:06:29.747Z,19.78
2023-03-16T22:08:59.607Z,19.74
2023-03-16T22:11:28.481Z,19.72
2023-03-16T22:13:56.797Z,19.70
2023-03-16T22:16:25.967Z,19.68
2023-03-16T22:18:58.075Z,19.65
2023-03-16T22:21:44.494Z,19.68
2023-03-16T22:24:17.008Z,19.67
2023-03-16T22:26:43.566Z,19.74
2023-03-16T22:29:33.706Z,19.74
2023-03-16T22:32:04.414Z,19.77
2023-03-16T22:34:43.016Z,19.67
2023-03-16T22:37:12.794Z,19.66
2023-03-16T22:39:40.025Z,19.68
2023-03-16T22:42:25.379Z,19.65
2023-03-16T22:44:51.849Z,19.70
2023-03-16T22:47:26.957Z,19.70
2023-03-16T22:49:53.937Z,19.68
2023-03-16T22:52:24.438Z,19.75
2023-03-16T22:54:50.998Z,19.68
2023-03-16T22:57:17.793Z,19.64
2023-03-16T22:59:45.725Z,19.65
2023-03-16T23:02:18.034Z,19.73
2023-03-16T23:04:44.799Z,19.74
2023-03-16T23:07:13.146Z,19.80
2023-03-16T23:09:40.384Z,19.76
2023-03-16T23:12:14.957Z,19.76
2023-03-16T23:14:42.219Z,19.70
2023-03-16T23:17:20.807Z,19.71
2023-03-16T23:19:48.084Z,19.64
2023-03-16T23:22:15.251Z,19.62
2023-03-16T23:24:42.517Z,19.63
2023-03-16T23:27:27.345Z,19.62
2023-03-16T23:29:53.788Z,19.59
2023-03-16T23:32:20.414Z,19.59
2023-03-16T23:34:46.880Z,19.72
2023-03-16T23:37:13.353Z,19.73
2023-03-16T23:39:40.025Z,19.71
2023-03-16T23:42:07.156Z,19.63
2023-03-16T23:44:33.879Z,19.62
2023-03-16T23:47:00.633Z,19.61
2023-03-16T23:49:33.857Z,19.60
2023-03-16T23:52:01.714Z,19.62
2023-03-16T23:54:30.725Z,19.63
2023-03-16T23:56:57.469Z,19.61
2023-03-16T23:59:25.036Z,19.59
